Time;durP1;ratioP1;P1;durP2;ratioP2;P2;SDS_P1;SDS_P2;PMS_P1;PMS_P2;Temp;Humidity;BMP_temperature;BMP_pressure;BME280_temperature;BME280_humidity;BME280_pressure;Samples;Min_cycle;Max_cycle;Signal;HPM_P1;HPM_P2
2023/08/18 00:00:06;;;;;;;25.52;22.55;;;;;;;19.77;71.21;101230.56;685281;28;1014;-76
2023/08/18 00:00:29;;;;;;;26.35;22.35;;;;;;;19.85;71.38;101248.22;679747;29;1132;-76
2023/08/18 00:00:50;;;;;;;25.45;22.45;;;;;;;19.81;71.13;101242.94;676972;29;1473;-76
2023/08/18 00:01:14;;;;;;;27.05;22.50;;;;;;;19.85;71.08;101249.97;677157;29;1145;-76
2023/08/18 00:01:34;;;;;;;29.35;23.00;;;;;;;19.81;71.30;101242.94;679674;29;1310;-76
2023/08/18 00:01:55;;;;;;;29.25;22.20;;;;;;;19.89;71.28;101250.88;679575;29;1403;-76
2023/08/18 00:02:16;;;;;;;29.27;22.48;;;;;;;19.85;71.27;101242.03;679503;29;1320;-76
2023/08/18 00:02:37;;;;;;;29.52;22.77;;;;;;;19.84;71.29;101243.81;682559;28;1048;-76
2023/08/18 00:02:57;;;;;;;28.97;23.53;;;;;;;19.87;71.24;101253.53;682128;29;1406;-76
2023/08/18 00:03:18;;;;;;;27.38;23.25;;;;;;;19.83;71.24;101238.50;685247;28;1097;-77
2023/08/18 00:03:39;;;;;;;26.40;23.25;;;;;;;19.78;71.29;101229.72;683128;28;1075;-76
2023/08/18 00:04:00;;;;;;;26.45;22.83;;;;;;;19.85;71.36;101242.03;682549;28;1171;-77
2023/08/18 00:04:20;;;;;;;26.23;23.17;;;;;;;19.80;71.28;101233.22;683788;28;1154;-76
2023/08/18 00:04:42;;;;;;;25.53;22.47;;;;;;;19.80;71.36;101231.44;684953;28;1116;-76
2023/08/18 00:05:02;;;;;;;25.83;22.88;;;;;;;19.85;71.40;101247.31;683665;28;1153;-76
2023/08/18 00:05:23;;;;;;;26.07;23.07;;;;;;;19.85;71.43;101244.66;679637;29;1644;-76
2023/08/18 00:05:44;;;;;;;27.45;23.17;;;;;;;19.77;71.49;101227.94;681756;29;1601;-77
2023/08/18 00:06:05;;;;;;;27.80;23.60;;;;;;;19.79;71.38;101239.44;676880;29;1478;-77
2023/08/18 00:06:25;;;;;;;29.48;23.80;;;;;;;19.87;71.35;101242.94;678680;29;1465;-76
2023/08/18 00:06:46;;;;;;;30.00;24.57;;;;;;;19.81;71.27;101238.53;682396;29;1126;-77
2023/08/18 00:07:07;;;;;;;30.83;24.42;;;;;;;19.76;71.13;101231.47;683008;28;1040;-76
2023/08/18 00:07:30;;;;;;;28.55;24.20;;;;;;;19.79;71.30;101228.81;682188;29;1772;-77
2023/08/18 00:07:51;;;;;;;27.60;23.60;;;;;;;19.82;71.19;101239.41;680702;29;1035;-76
2023/08/18 00:08:12;;;;;;;27.50;23.40;;;;;;;19.84;71.43;101242.91;679883;29;1081;-76
2023/08/18 00:08:32;;;;;;;28.92;24.52;;;;;;;19.84;71.43;101248.22;679553;29;1093;-76
2023/08/18 00:08:53;;;;;;;28.40;24.13;;;;;;;19.85;71.15;101244.66;679847;29;1150;-77
2023/08/18 00:09:24;;;;;;;28.90;24.60;;;;;;;19.84;71.33;101237.63;677210;29;1171;-76
2023/08/18 00:09:45;;;;;;;30.40;25.05;;;;;;;19.86;71.22;101247.31;676953;29;1454;-77
2023/08/18 00:10:06;;;;;;;31.45;25.80;;;;;;;19.83;71.44;101242.06;680103;29;1037;-77
2023/08/18 00:10:27;;;;;;;33.15;25.20;;;;;;;19.80;71.30;101236.75;679700;29;938;-76
2023/08/18 00:10:47;;;;;;;30.25;24.60;;;;;;;19.91;71.64;101259.72;681915;29;1797;-76
2023/08/18 00:11:08;;;;;;;28.00;24.20;;;;;;;19.83;71.44;101236.75;684223;28;1422;-77
2023/08/18 00:11:29;;;;;;;27.58;24.60;;;;;;;19.89;71.42;101251.78;682256;29;1414;-77
2023/08/18 00:11:50;;;;;;;28.50;24.58;;;;;;;19.80;71.42;101235.88;682261;29;1107;-77
2023/08/18 00:12:11;;;;;;;30.03;24.77;;;;;;;19.80;71.40;101235.88;682598;29;1064;-77
2023/08/18 00:12:32;;;;;;;31.95;24.98;;;;;;;19.84;71.48;101245.56;682511;29;1151;-77
2023/08/18 00:12:52;;;;;;;32.40;25.83;;;;;;;19.78;71.49;101232.38;682434;29;1413;-77
2023/08/18 00:13:13;;;;;;;33.35;27.40;;;;;;;19.87;71.46;101253.53;682021;29;1176;-76
2023/08/18 00:13:34;;;;;;;31.27;26.87;;;;;;;19.85;71.43;101244.66;679789;29;1412;-76
2023/08/18 00:13:54;;;;;;;32.88;26.90;;;;;;;19.80;71.26;101241.19;677566;29;1216;-77
2023/08/18 00:14:15;;;;;;;35.25;27.75;;;;;;;19.80;71.25;101241.19;682390;29;1109;-76
2023/08/18 00:14:36;;;;;;;35.92;29.98;;;;;;;19.91;71.47;101249.13;682611;28;1267;-76
2023/08/18 00:14:57;;;;;;;37.80;30.63;;;;;;;19.79;71.35;101240.28;682236;29;1445;-76
2023/08/18 00:15:18;;;;;;;38.20;30.85;;;;;;;19.83;71.44;101246.47;683015;28;1021;-76
2023/08/18 00:15:39;;;;;;;37.80;30.25;;;;;;;19.76;71.27;101234.13;684229;28;1403;-77
2023/08/18 00:16:00;;;;;;;40.03;31.60;;;;;;;19.75;71.53;101232.34;681692;29;1910;-77
2023/08/18 00:16:20;;;;;;;39.15;30.98;;;;;;;19.72;71.54;101223.53;677504;29;1613;-77
2023/08/18 00:16:41;;;;;;;40.72;31.15;;;;;;;19.76;71.51;101234.13;682059;29;1139;-76
2023/08/18 00:17:02;;;;;;;40.97;31.33;;;;;;;19.76;71.49;101231.47;685144;28;1065;-77
2023/08/18 00:17:23;;;;;;;41.40;32.38;;;;;;;19.71;71.49;101229.72;684914;28;1917;-76
2023/08/18 00:17:43;;;;;;;41.97;32.67;;;;;;;19.71;71.69;101227.09;685330;28;1362;-76
2023/08/18 00:18:04;;;;;;;38.85;32.42;;;;;;;19.72;71.62;101225.28;687802;28;1146;-76
2023/08/18 00:18:25;;;;;;;38.20;32.25;;;;;;;19.71;71.39;101228.84;683386;28;1381;-77
2023/08/18 00:18:46;;;;;;;36.80;31.95;;;;;;;19.80;71.59;101242.03;684245;28;1143;-76
2023/08/18 00:19:07;;;;;;;37.60;32.10;;;;;;;19.72;71.74;101228.84;682583;29;1135;-76
2023/08/18 00:19:27;;;;;;;37.40;32.27;;;;;;;19.71;71.58;101221.78;679914;29;1802;-76
2023/08/18 00:19:48;;;;;;;36.88;32.30;;;;;;;19.72;71.64;101227.94;685176;28;1811;-76
2023/08/18 00:20:09;;;;;;;37.70;32.90;;;;;;;19.68;71.62;101221.78;684644;28;1099;-76
2023/08/18 00:20:30;;;;;;;38.47;33.65;;;;;;;19.72;71.52;101226.19;685046;28;1067;-76
2023/08/18 00:20:51;;;;;;;40.65;34.50;;;;;;;19.70;71.53;101220.03;684885;28;1310;-76
2023/08/18 00:21:12;;;;;;;40.88;34.92;;;;;;;19.81;71.64;101232.34;685214;28;1040;-77
2023/08/18 00:21:32;;;;;;;40.13;34.43;;;;;;;19.72;71.73;101223.53;685391;28;1669;-76
2023/08/18 00:21:53;;;;;;;38.83;34.55;;;;;;;19.71;71.65;101227.09;679813;29;1168;-77
2023/08/18 00:22:13;;;;;;;39.05;34.08;;;;;;;19.72;71.65;101220.91;679760;29;1348;-76
2023/08/18 00:22:34;;;;;;;38.13;33.47;;;;;;;19.72;71.66;101222.66;678767;29;1127;-76
2023/08/18 00:22:55;;;;;;;38.65;33.13;;;;;;;19.67;71.58;101225.31;679977;28;1906;-76
2023/08/18 00:23:16;;;;;;;39.13;32.72;;;;;;;19.70;71.66;101222.69;679802;29;1129;-76
2023/08/18 00:23:36;;;;;;;45.28;34.15;;;;;;;19.75;71.67;101229.72;684502;28;1104;-77
2023/08/18 00:23:57;;;;;;;48.53;34.53;;;;;;;19.70;71.72;101220.03;682325;28;1574;-77
2023/08/18 00:24:18;;;;;;;45.97;34.20;;;;;;;19.71;71.67;101221.78;682408;29;1178;-77
2023/08/18 00:24:39;;;;;;;40.10;32.67;;;;;;;19.74;71.71;101228.84;681585;29;1119;-76
2023/08/18 00:25:00;;;;;;;39.25;32.72;;;;;;;19.72;71.82;101228.84;679619;29;1467;-77
2023/08/18 00:25:20;;;;;;;40.92;33.70;;;;;;;19.73;71.73;101227.94;679811;28;1631;-77
2023/08/18 00:25:41;;;;;;;43.40;34.10;;;;;;;19.67;71.77;101209.44;682834;28;1214;-77
2023/08/18 00:26:03;;;;;;;41.05;34.25;;;;;;;19.75;71.73;101227.06;682056;29;1453;-77
2023/08/18 00:26:23;;;;;;;40.58;33.03;;;;;;;19.70;71.80;101220.03;682237;29;1661;-77
2023/08/18 00:26:45;;;;;;;39.15;32.35;;;;;;;19.75;71.74;101225.31;679677;29;1167;-76
2023/08/18 00:27:06;;;;;;;39.97;32.58;;;;;;;19.71;71.90;101210.31;682168;28;1805;-77
2023/08/18 00:27:27;;;;;;;40.30;32.80;;;;;;;19.73;71.75;101216.47;682236;28;1091;-77
2023/08/18 00:27:48;;;;;;;40.45;33.47;;;;;;;19.78;71.66;101221.78;685114;28;1064;-77
2023/08/18 00:28:09;;;;;;;40.67;34.22;;;;;;;19.77;71.78;101225.28;681455;28;1473;-77
2023/08/18 00:28:29;;;;;;;40.42;34.25;;;;;;;19.80;71.69;101226.16;683393;28;1206;-76
2023/08/18 00:28:50;;;;;;;42.17;34.83;;;;;;;19.85;71.65;101234.97;687632;28;1074;-77
2023/08/18 00:29:11;;;;;;;42.90;35.57;;;;;;;19.76;71.60;101218.22;685758;28;1376;-76
2023/08/18 00:29:31;;;;;;;41.05;34.67;;;;;;;19.75;71.72;101216.47;687801;28;1146;-76
2023/08/18 00:29:52;;;;;;;38.90;34.17;;;;;;;19.80;71.74;101220.00;685043;28;1452;-76
2023/08/18 00:30:13;;;;;;;38.73;33.50;;;;;;;19.80;71.73;101220.00;684275;28;1151;-76
2023/08/18 00:30:34;;;;;;;40.70;35.05;;;;;;;19.73;71.68;101214.72;687055;28;1152;-77
2023/08/18 00:30:55;;;;;;;41.35;35.75;;;;;;;19.78;71.59;101222.63;682477;29;1133;-76
2023/08/18 00:31:16;;;;;;;40.45;35.72;;;;;;;19.75;71.67;101219.13;679853;29;1090;-77
2023/08/18 00:31:37;;;;;;;42.13;36.65;;;;;;;19.80;71.67;101220.00;678721;29;1187;-76
2023/08/18 00:31:59;;;;;;;41.55;35.75;;;;;;;19.71;71.69;101211.19;679532;28;1223;-77
2023/08/18 00:32:19;;;;;;;43.25;36.75;;;;;;;19.77;71.82;101226.19;682384;29;1113;-77
2023/08/18 00:32:40;;;;;;;41.90;35.70;;;;;;;19.72;71.79;101218.25;682214;29;1318;-77
2023/08/18 00:33:01;;;;;;;43.30;35.70;;;;;;;19.73;71.84;101212.06;684955;28;1154;-76
2023/08/18 00:33:23;;;;;;;42.72;35.35;;;;;;;19.90;71.70;101232.34;682671;28;1338;-76
2023/08/18 00:33:44;;;;;;;44.90;36.43;;;;;;;19.79;71.67;101213.81;676555;29;1063;-77
2023/08/18 00:34:04;;;;;;;45.22;37.95;;;;;;;19.76;71.79;101213.81;679966;29;1116;-77
2023/08/18 00:34:25;;;;;;;43.72;37.65;;;;;;;19.78;71.86;101221.78;680222;29;1080;-77
2023/08/18 00:34:46;;;;;;;41.00;36.50;;;;;;;19.74;71.75;101215.59;681570;28;1314;-77
2023/08/18 00:35:07;;;;;;;43.70;36.78;;;;;;;19.79;71.86;101218.25;679747;29;997;-76
2023/08/18 00:35:28;;;;;;;46.80;37.10;;;;;;;19.75;71.90;101225.31;680511;29;1068;-77
2023/08/18 00:35:49;;;;;;;49.60;38.00;;;;;;;19.75;71.88;101213.81;685261;28;1586;-76
2023/08/18 00:36:10;;;;;;;45.30;37.28;;;;;;;19.73;72.01;101216.47;685887;28;1898;-76
2023/08/18 00:36:32;;;;;;;46.95;37.78;;;;;;;19.73;72.05;101214.72;685264;28;1423;-76
2023/08/18 00:36:53;;;;;;;46.45;37.75;;;;;;;19.69;72.07;101207.69;683476;28;1151;-76
2023/08/18 00:37:16;;;;;;;45.22;37.75;;;;;;;19.71;71.95;101211.19;679848;29;1172;-76
2023/08/18 00:37:37;;;;;;;43.60;37.85;;;;;;;19.68;72.08;101211.19;680003;29;1088;-76
2023/08/18 00:37:57;;;;;;;43.70;38.90;;;;;;;19.73;72.12;101220.00;679295;28;1695;-76
2023/08/18 00:38:18;;;;;;;45.83;40.03;;;;;;;19.71;72.10;101213.84;682539;29;1084;-76
2023/08/18 00:38:39;;;;;;;47.80;40.72;;;;;;;19.64;72.15;101204.16;681615;29;1158;-77
2023/08/18 00:39:01;;;;;;;49.75;41.40;;;;;;;19.69;72.22;101217.38;684844;28;1658;-76
2023/08/18 00:39:22;;;;;;;49.55;41.20;;;;;;;19.65;72.25;101212.97;679746;28;1100;-76
2023/08/18 00:39:43;;;;;;;47.95;39.90;;;;;;;19.65;72.16;101210.31;682534;29;1135;-76
2023/08/18 00:40:04;;;;;;;46.80;38.10;;;;;;;19.67;72.18;101220.03;681537;28;1515;-76
2023/08/18 00:40:25;;;;;;;45.13;37.65;;;;;;;19.65;72.13;101213.84;678582;29;1524;-77
2023/08/18 00:40:46;;;;;;;43.83;37.87;;;;;;;19.62;72.38;101205.03;679592;29;1227;-77
2023/08/18 00:41:06;;;;;;;45.28;39.22;;;;;;;19.67;72.33;101217.38;679654;29;1826;-77
2023/08/18 00:41:28;;;;;;;47.90;38.67;;;;;;;19.65;72.36;101211.22;679694;29;1054;-77
2023/08/18 00:42:01;;;;;;;49.28;38.40;;;;;;;19.65;72.47;101215.59;679496;29;1075;-77
2023/08/18 00:42:22;;;;;;;48.05;39.03;;;;;;;19.70;72.34;101213.84;682372;28;1386;-77
2023/08/18 00:42:42;;;;;;;50.50;38.72;;;;;;;19.71;72.34;101221.78;681796;28;1276;-76
2023/08/18 00:43:03;;;;;;;49.37;37.83;;;;;;;19.67;72.36;101214.72;684468;28;1114;-77
2023/08/18 00:43:24;;;;;;;48.00;38.10;;;;;;;19.71;72.57;101221.78;684233;28;1285;-76
2023/08/18 00:43:45;;;;;;;47.45;37.90;;;;;;;19.67;72.48;101205.91;685051;28;937;-76
2023/08/18 00:44:06;;;;;;;48.63;38.35;;;;;;;19.63;72.30;101207.69;682575;28;1162;-76
2023/08/18 00:44:27;;;;;;;50.17;39.58;;;;;;;19.68;72.24;101215.63;685367;28;1165;-76
2023/08/18 00:44:48;;;;;;;49.45;39.55;;;;;;;19.66;72.60;101217.41;682151;29;1055;-77
2023/08/18 00:45:09;;;;;;;49.25;39.90;;;;;;;19.64;72.40;101206.81;682250;28;1168;-76
2023/08/18 00:45:30;;;;;;;45.13;38.67;;;;;;;19.66;72.51;101210.31;681749;28;1875;-77
2023/08/18 00:45:53;;;;;;;44.05;38.65;;;;;;;19.73;72.64;101221.75;680435;28;1215;-76
2023/08/18 00:46:15;;;;;;;43.75;36.67;;;;;;;19.65;72.46;101205.91;684404;28;1339;-77
2023/08/18 00:46:36;;;;;;;42.35;35.25;;;;;;;19.66;72.54;101210.31;681940;28;1466;-76
2023/08/18 00:46:56;;;;;;;42.78;36.10;;;;;;;19.73;72.59;101222.66;679631;29;1320;-77
2023/08/18 00:47:18;;;;;;;43.42;37.45;;;;;;;19.67;72.74;101209.44;677698;29;1140;-76
2023/08/18 00:47:39;;;;;;;44.45;38.35;;;;;;;19.65;72.45;101200.63;677629;29;1386;-76
2023/08/18 00:48:00;;;;;;;47.50;40.10;;;;;;;19.70;72.34;101204.16;679723;29;1260;-77
2023/08/18 00:48:23;;;;;;;47.50;40.03;;;;;;;19.71;72.47;101205.91;684587;28;1295;-78
2023/08/18 00:48:44;;;;;;;48.45;40.03;;;;;;;19.75;72.58;101209.41;684512;28;1477;-77
2023/08/18 00:49:08;;;;;;;48.90;38.95;;;;;;;19.70;72.43;101209.44;687642;28;1178;-76
2023/08/18 00:49:28;;;;;;;48.83;39.35;;;;;;;19.70;72.51;101211.19;684887;28;1150;-76
2023/08/18 00:49:49;;;;;;;48.55;39.63;;;;;;;19.70;72.54;101209.44;680815;29;1481;-76
2023/08/18 00:50:11;;;;;;;48.90;39.85;;;;;;;19.70;72.54;101203.25;677215;29;1005;-77
2023/08/18 00:50:32;;;;;;;53.40;39.65;;;;;;;19.76;72.61;101212.94;681191;29;1081;-76
2023/08/18 00:50:53;;;;;;;50.30;39.85;;;;;;;19.69;72.52;101207.69;683384;28;1084;-77
2023/08/18 00:51:14;;;;;;;50.70;39.93;;;;;;;19.67;72.43;101200.63;685047;28;1223;-77
2023/08/18 00:51:39;;;;;;;48.17;40.40;;;;;;;19.68;72.44;101200.59;681972;29;1507;-76
2023/08/18 00:52:01;;;;;;;50.03;40.22;;;;;;;19.70;72.51;101203.25;677898;29;1453;-77
2023/08/18 00:52:22;;;;;;;47.67;40.75;;;;;;;19.69;72.56;101207.69;679675;29;1045;-77
2023/08/18 00:52:43;;;;;;;47.00;40.05;;;;;;;19.75;72.48;101213.81;679717;28;1519;-77
2023/08/18 00:53:05;;;;;;;46.60;39.85;;;;;;;19.67;72.72;101203.28;682128;29;1706;-76
2023/08/18 00:53:27;;;;;;;48.88;40.25;;;;;;;19.72;72.44;101215.59;679746;29;1344;-76
2023/08/18 00:53:47;;;;;;;49.17;41.88;;;;;;;19.63;72.56;101197.09;679664;29;1209;-76
2023/08/18 00:54:09;;;;;;;51.05;41.53;;;;;;;19.66;72.46;101205.03;684792;28;1784;-76
2023/08/18 00:54:30;;;;;;;53.08;43.10;;;;;;;19.62;72.52;101195.34;685167;28;1446;-77
2023/08/18 00:54:52;;;;;;;49.70;41.80;;;;;;;19.63;72.53;101197.09;687152;28;1273;-77
2023/08/18 00:55:13;;;;;;;50.45;43.20;;;;;;;19.64;72.53;101201.50;684582;28;1858;-77
2023/08/18 00:55:33;;;;;;;50.88;42.92;;;;;;;19.69;72.57;101210.31;684317;28;1357;-76
2023/08/18 00:55:54;;;;;;;53.80;44.42;;;;;;;19.65;72.69;101205.03;679348;29;1904;-76
2023/08/18 00:56:16;;;;;;;52.22;43.30;;;;;;;19.68;72.57;101211.19;680859;29;1505;-77
2023/08/18 00:56:39;;;;;;;49.65;43.03;;;;;;;19.61;72.63;101193.56;685429;28;1309;-77
2023/08/18 00:56:59;;;;;;;48.40;42.53;;;;;;;19.62;72.76;101194.44;684918;28;1233;-76
2023/08/18 00:57:21;;;;;;;49.25;42.58;;;;;;;19.67;72.79;101211.22;679486;29;1374;-77
2023/08/18 00:57:43;;;;;;;52.15;42.97;;;;;;;19.61;72.54;101187.41;684667;28;1384;-76
2023/08/18 00:58:04;;;;;;;52.90;42.33;;;;;;;19.64;72.70;101198.88;679203;29;1191;-76
2023/08/18 00:58:24;;;;;;;52.25;42.33;;;;;;;19.63;72.60;101194.47;680108;28;1182;-76
2023/08/18 00:58:45;;;;;;;49.63;41.50;;;;;;;19.64;72.72;101198.88;674428;29;1103;-77
2023/08/18 00:59:06;;;;;;;46.70;40.95;;;;;;;19.65;72.46;101200.63;677019;29;1174;-76
2023/08/18 00:59:27;;;;;;;46.03;40.50;;;;;;;19.62;72.42;101194.44;677689;29;1225;-77
2023/08/18 00:59:49;;;;;;;47.78;41.25;;;;;;;19.62;72.69;101195.34;679906;28;1009;-76
2023/08/18 01:00:11;;;;;;;49.55;42.40;;;;;;;19.63;72.82;101196.22;679907;29;1111;-76
2023/08/18 01:00:34;;;;;;;51.08;43.97;;;;;;;19.62;72.77;101199.75;683710;28;1234;-77
2023/08/18 01:00:55;;;;;;;51.70;44.03;;;;;;;19.55;72.84;101199.75;681987;29;1485;-76
2023/08/18 01:01:16;;;;;;;54.53;43.70;;;;;;;19.67;72.77;101214.72;679660;29;1105;-76
2023/08/18 01:01:37;;;;;;;59.15;43.47;;;;;;;19.59;72.86;101196.22;681214;29;1182;-76
2023/08/18 01:02:02;;;;;;;62.92;43.38;;;;;;;19.57;72.75;101197.13;684524;28;1892;-77
2023/08/18 01:02:23;;;;;;;56.75;44.17;;;;;;;19.56;72.71;101200.66;679691;29;1025;-76
2023/08/18 01:02:44;;;;;;;53.15;43.83;;;;;;;19.54;72.89;101200.66;682282;28;1194;-76
2023/08/18 01:03:06;;;;;;;56.30;44.17;;;;;;;19.54;72.80;101194.50;679723;29;1616;-77
2023/08/18 01:03:26;;;;;;;57.20;42.75;;;;;;;19.55;72.72;101199.75;679785;29;1207;-76
2023/08/18 01:03:47;;;;;;;57.05;42.95;;;;;;;19.51;73.00;101186.53;682309;29;1122;-77
2023/08/18 01:04:10;;;;;;;54.40;42.45;;;;;;;19.62;73.10;101205.94;684349;28;1220;-77
2023/08/18 01:04:31;;;;;;;50.20;41.80;;;;;;;19.53;72.96;101184.75;685392;28;1101;-76
2023/08/18 01:04:53;;;;;;;52.85;41.95;;;;;;;19.67;72.96;101209.44;685986;28;1082;-77
2023/08/18 01:05:14;;;;;;;52.58;43.13;;;;;;;19.57;73.13;101189.19;684808;28;1846;-77
2023/08/18 01:05:36;;;;;;;54.70;43.60;;;;;;;19.57;72.99;101192.72;688690;28;1104;-77
2023/08/18 01:05:58;;;;;;;53.08;44.08;;;;;;;19.59;72.95;101201.53;687510;28;1384;-76
2023/08/18 01:06:19;;;;;;;51.40;43.70;;;;;;;19.60;72.97;101197.09;681445;29;1266;-77
2023/08/18 01:06:40;;;;;;;50.05;43.22;;;;;;;19.57;72.94;101194.47;682929;28;1121;-77
2023/08/18 01:07:02;;;;;;;51.53;43.13;;;;;;;19.56;73.13;101195.34;685031;28;1045;-76
2023/08/18 01:07:22;;;;;;;51.10;43.15;;;;;;;19.57;73.18;101197.13;675296;29;1872;-76
2023/08/18 01:07:44;;;;;;;52.37;44.53;;;;;;;19.61;73.36;101212.09;674964;29;1127;-76
2023/08/18 01:08:05;;;;;;;53.05;44.67;;;;;;;19.57;73.22;101200.66;677227;29;2140;-76
2023/08/18 01:08:26;;;;;;;53.25;44.88;;;;;;;19.63;73.24;101214.75;679531;29;993;-76
2023/08/18 01:08:50;;;;;;;56.40;44.70;;;;;;;19.61;73.20;101206.78;674850;29;1334;-76
2023/08/18 01:09:11;;;;;;;55.95;44.40;;;;;;;19.56;73.08;101195.34;682293;29;1131;-76
2023/08/18 01:09:32;;;;;;;50.42;43.17;;;;;;;19.59;73.19;101197.97;681383;29;1276;-76
2023/08/18 01:09:54;;;;;;;53.25;43.47;;;;;;;19.53;73.12;101187.41;684943;28;1031;-77
2023/08/18 01:10:15;;;;;;;53.25;43.58;;;;;;;19.62;72.99;101198.00;685078;28;1183;-77
2023/08/18 01:11:28;;;;;;;56.97;44.65;;;;;;;19.59;73.11;101197.97;679080;29;1169;-76
2023/08/18 01:11:57;;;;;;;59.83;45.53;;;;;;;19.67;73.09;101209.44;681825;29;1645;-76
2023/08/18 01:12:45;;;;;;;55.47;44.15;;;;;;;19.66;73.05;101207.66;682437;28;1171;-76
2023/08/18 01:13:21;;;;;;;60.60;44.92;;;;;;;19.64;73.06;101208.56;684871;28;1125;-77
2023/08/18 01:13:49;;;;;;;61.47;44.53;;;;;;;19.54;73.16;101192.69;682421;28;2058;-76
2023/08/18 01:14:35;;;;;;;58.15;44.35;;;;;;;19.65;73.25;101205.91;686417;28;1005;-76
2023/08/18 01:15:16;;;;;;;57.50;43.20;;;;;;;19.63;73.28;101202.41;687225;28;1587;-77
2023/08/18 01:15:42;;;;;;;51.78;42.80;;;;;;;19.56;73.23;101190.06;687172;28;1373;-76
2023/08/18 01:16:06;;;;;;;52.13;43.38;;;;;;;19.60;73.44;101191.81;685031;28;1986;-77
2023/08/18 01:16:29;;;;;;;51.17;43.22;;;;;;;19.64;73.16;101200.63;685812;28;1102;-77
2023/08/18 01:17:01;;;;;;;51.35;43.15;;;;;;;19.53;73.19;101184.75;682298;28;1586;-77
2023/08/18 01:17:29;;;;;;;55.25;44.58;;;;;;;19.61;73.24;101198.84;683496;28;1082;-77
2023/08/18 01:18:00;;;;;;;57.97;44.55;;;;;;;19.59;73.30;101192.69;685210;28;2068;-77
2023/08/18 01:18:22;;;;;;;59.08;43.88;;;;;;;19.51;73.46;101183.88;682048;28;1792;-76
2023/08/18 01:18:43;;;;;;;57.97;43.90;;;;;;;19.53;73.37;101188.31;682308;28;1411;-76
2023/08/18 01:19:10;;;;;;;58.05;42.58;;;;;;;19.64;73.23;101201.50;683125;28;1068;-76
2023/08/18 01:19:32;;;;;;;55.85;42.03;;;;;;;19.64;73.31;101203.25;684913;28;1063;-76
2023/08/18 01:19:53;;;;;;;55.97;41.58;;;;;;;19.57;73.37;101191.81;685035;28;1133;-77
2023/08/18 01:20:14;;;;;;;53.63;41.75;;;;;;;19.52;73.44;101175.97;684962;28;1188;-77
2023/08/18 01:20:37;;;;;;;54.72;42.13;;;;;;;19.56;73.51;101187.41;680302;29;1131;-77
2023/08/18 01:21:01;;;;;;;48.75;41.08;;;;;;;19.62;73.49;101198.00;684975;28;1112;-77
2023/08/18 01:21:24;;;;;;;51.03;41.70;;;;;;;19.58;73.41;101188.28;682030;29;1748;-77
2023/08/18 01:21:45;;;;;;;47.97;41.28;;;;;;;19.58;73.47;101183.00;677038;29;1109;-76
2023/08/18 01:22:11;;;;;;;54.03;42.33;;;;;;;19.61;73.42;101190.03;678662;29;1071;-76
2023/08/18 01:22:34;;;;;;;51.20;40.20;;;;;;;19.57;73.61;101186.53;687690;28;1621;-76
2023/08/18 01:22:59;;;;;;;46.80;39.50;;;;;;;19.55;73.52;101186.53;687706;28;1278;-77
2023/08/18 01:23:20;;;;;;;47.95;40.47;;;;;;;19.57;73.58;101191.81;687633;28;1207;-77
2023/08/18 01:23:41;;;;;;;47.33;40.50;;;;;;;19.56;73.49;101187.41;684721;28;1580;-77
2023/08/18 01:24:03;;;;;;;46.78;39.70;;;;;;;19.62;73.57;101192.69;677882;29;1255;-77
2023/08/18 01:24:26;;;;;;;50.17;39.75;;;;;;;19.60;73.50;101191.81;678643;29;1798;-77
2023/08/18 01:24:47;;;;;;;49.97;39.60;;;;;;;19.54;73.52;101182.13;678624;29;1837;-76
2023/08/18 01:25:20;;;;;;;56.08;40.45;;;;;;;19.56;73.56;101175.03;679395;29;1101;-77
2023/08/18 01:25:41;;;;;;;53.33;39.42;;;;;;;19.59;73.38;101180.34;676231;29;1530;-77
2023/08/18 01:26:02;;;;;;;49.20;38.25;;;;;;;19.69;73.70;101194.44;676985;29;1149;-76
2023/08/18 01:26:23;;;;;;;49.05;38.15;;;;;;;19.65;73.42;101191.78;681159;29;1115;-76
2023/08/18 01:26:43;;;;;;;49.88;38.05;;;;;;;19.65;73.40;101194.44;677902;29;1459;-76
2023/08/18 01:27:05;;;;;;;50.75;39.00;;;;;;;19.69;73.61;101191.78;680453;29;1481;-77
2023/08/18 01:27:28;;;;;;;47.40;39.30;;;;;;;19.58;73.36;101169.75;677566;29;1238;-77
2023/08/18 01:28:06;;;;;;;44.25;39.17;;;;;;;19.63;73.39;101175.94;679757;29;1391;-77
2023/08/18 01:28:26;;;;;;;47.08;38.22;;;;;;;19.62;73.59;101168.88;677786;29;1222;-76
2023/08/18 01:29:02;;;;;;;48.00;38.40;;;;;;;19.59;73.41;101159.16;679953;29;1100;-76
2023/08/18 01:29:27;;;;;;;44.90;37.92;;;;;;;19.69;73.46;101183.84;681618;29;1443;-77
2023/08/18 01:29:48;;;;;;;45.63;37.00;;;;;;;19.60;73.38;101170.63;686649;28;1455;-77
2023/08/18 01:30:09;;;;;;;46.80;37.17;;;;;;;19.65;73.29;101174.16;684970;28;1468;-77
2023/08/18 01:30:36;;;;;;;47.78;38.35;;;;;;;19.65;73.32;101176.78;682133;28;1850;-77
2023/08/18 01:31:00;;;;;;;43.45;37.88;;;;;;;19.58;73.39;101162.72;681791;29;1272;-77
2023/08/18 01:31:30;;;;;;;42.20;37.60;;;;;;;19.70;73.40;101184.72;679447;29;1904;-76
2023/08/18 01:31:55;;;;;;;43.97;38.15;;;;;;;19.64;73.44;101176.78;682595;28;1065;-77
2023/08/18 01:32:18;;;;;;;47.90;38.58;;;;;;;19.57;73.49;101160.06;687528;28;1016;-76
2023/08/18 01:32:45;;;;;;;49.00;39.47;;;;;;;19.59;73.28;101164.47;682132;28;1618;-77
2023/08/18 01:33:26;;;;;;;46.78;38.45;;;;;;;19.71;73.40;101183.81;682214;29;1522;-76
2023/08/18 01:33:56;;;;;;;47.90;38.25;;;;;;;19.58;73.28;101159.16;675807;29;1440;-76
2023/08/18 01:34:20;;;;;;;48.00;38.80;;;;;;;19.62;73.30;101167.97;682374;29;1139;-77
2023/08/18 01:34:43;;;;;;;50.92;40.10;;;;;;;19.63;73.32;101169.75;682250;29;1376;-76
2023/08/18 01:35:06;;;;;;;50.17;40.42;;;;;;;19.64;73.34;101167.09;685514;28;1516;-76
2023/08/18 01:35:29;;;;;;;51.28;40.10;;;;;;;19.61;73.42;101163.56;681832;28;1148;-77
2023/08/18 01:35:54;;;;;;;48.63;39.40;;;;;;;19.61;73.30;101175.03;681779;28;1405;-76
2023/08/18 01:36:20;;;;;;;49.53;38.92;;;;;;;19.58;73.38;101168.00;685089;28;1046;-76
2023/08/18 01:36:43;;;;;;;49.10;40.08;;;;;;;19.58;73.39;101164.47;687695;28;1119;-76
2023/08/18 01:37:05;;;;;;;49.35;40.85;;;;;;;19.66;73.29;101186.50;684946;28;1094;-77
2023/08/18 01:37:29;;;;;;;46.92;40.28;;;;;;;19.59;73.37;101163.56;682950;28;1177;-76
2023/08/18 01:37:53;;;;;;;46.15;40.75;;;;;;;19.65;73.36;101168.84;682410;28;1366;-76
2023/08/18 01:38:15;;;;;;;47.10;40.80;;;;;;;19.59;73.29;101163.56;682581;29;1081;-77
2023/08/18 01:38:37;;;;;;;52.30;41.28;;;;;;;19.66;73.34;101170.59;682293;28;1116;-76
2023/08/18 01:39:02;;;;;;;54.13;41.28;;;;;;;19.64;73.17;101171.50;679365;29;1438;-76
2023/08/18 01:39:25;;;;;;;49.42;41.30;;;;;;;19.64;73.19;101174.13;684700;28;1174;-76
2023/08/18 01:39:46;;;;;;;48.78;41.13;;;;;;;19.63;73.21;101165.34;679877;29;1067;-77
2023/08/18 01:40:11;;;;;;;46.45;40.47;;;;;;;19.65;73.20;101171.50;682093;28;1194;-77
2023/08/18 01:40:33;;;;;;;49.72;40.67;;;;;;;19.63;72.99;101161.78;675832;29;1367;-76
2023/08/18 01:41:17;;;;;;;48.80;40.45;;;;;;;19.73;73.05;101182.03;677045;29;1174;-76
2023/08/18 01:41:40;;;;;;;49.65;40.40;;;;;;;19.62;73.16;101160.94;678346;29;1070;-77
2023/08/18 01:42:02;;;;;;;52.90;41.25;;;;;;;19.69;73.07;101165.31;681267;29;1136;-77
2023/08/18 01:42:23;;;;;;;52.30;41.35;;;;;;;19.63;73.06;101160.03;685708;28;1426;-77
2023/08/18 01:42:45;;;;;;;54.05;41.28;;;;;;;19.62;73.14;101160.03;682398;28;1213;-76
2023/08/18 01:43:06;;;;;;;52.00;40.85;;;;;;;19.70;73.09;101177.66;682473;28;1198;-76
2023/08/18 01:43:30;;;;;;;50.42;41.40;;;;;;;19.67;73.03;101164.44;676228;29;1406;-76
2023/08/18 01:43:52;;;;;;;50.85;41.15;;;;;;;19.70;73.08;101176.78;679484;29;1308;-76
2023/08/18 01:44:16;;;;;;;50.28;40.33;;;;;;;19.63;73.22;101160.03;677295;29;1194;-77
2023/08/18 01:44:37;;;;;;;48.40;39.63;;;;;;;19.62;73.16;101163.59;681698;29;1744;-76
2023/08/18 01:45:02;;;;;;;45.10;39.55;;;;;;;19.65;73.12;101162.66;684349;28;1154;-77